Terminal Aerodrome Forecast
Issued by NWS

Current Version | Previous Version | Text Only | Print | Product List | Glossary Off
Versions: 1 2 3 4 5 6 7 8 9 10 11 12 13 14 15 16 17 18 19

000
FTUS41 KILN 201100
TAFLUK
TAF
KLUK 201122Z 2012/2112 21006KT P6SM VCSH BKN100
     FM201500 21011G17KT P6SM BKN040 BKN080
      TEMPO 2023/2102 24008KT -SHRA OVC030
     FM210200 29006KT P6SM SCT035
     FM210800 30006KT P6SM OVC040=

USA.gov is the U.S. government's official web portal to all federal, state and local government web resources and services.